createdAt,value
2022-12-12T14:59:49.948Z,18.00
2022-12-12T15:02:38.971Z,14.35
2022-12-12T15:05:23.462Z,17.35
2022-12-12T15:08:22.984Z,14.10
2022-12-12T15:11:07.045Z,14.90
2022-12-12T15:14:11.842Z,14.60
2022-12-12T15:17:08.821Z,13.73
2022-12-12T15:19:54.660Z,13.43
2022-12-12T15:22:57.913Z,12.77
2022-12-12T15:26:05.898Z,11.17
2022-12-12T15:28:56.412Z,13.90
2022-12-12T15:31:41.955Z,14.38
2022-12-12T15:34:36.937Z,13.38
2022-12-12T15:37:32.801Z,13.48
2022-12-12T15:40:48.507Z,12.57
2022-12-12T15:43:35.644Z,13.18
2022-12-12T15:46:18.908Z,12.50
2022-12-12T15:49:05.862Z,12.98
2022-12-12T15:51:49.830Z,12.93
2022-12-12T15:54:51.020Z,12.45
2022-12-12T15:57:54.187Z,13.43
2022-12-12T16:00:45.985Z,11.27
2022-12-12T16:03:33.256Z,18.02
2022-12-12T16:06:24.841Z,13.98
2022-12-12T16:09:11.599Z,11.18
2022-12-12T16:12:16.822Z,11.70
2022-12-12T16:15:23.639Z,12.38
2022-12-12T16:18:28.927Z,13.52
2022-12-12T16:21:11.248Z,12.65
2022-12-12T16:23:54.889Z,13.27
2022-12-12T16:26:31.017Z,12.65
2022-12-12T16:29:29.080Z,12.48
2022-12-12T16:32:16.344Z,11.77
2022-12-12T16:35:07.241Z,13.38
2022-12-12T16:38:00.583Z,11.38
2022-12-12T16:40:43.897Z,11.85
2022-12-12T16:43:29.182Z,10.50
2022-12-12T16:46:20.965Z,10.82
2022-12-12T16:49:16.155Z,10.30
2022-12-12T16:52:09.826Z,11.05
2022-12-12T16:54:58.847Z,11.70
2022-12-12T16:57:50.681Z,10.48
2022-12-12T17:00:44.731Z,11.52
2022-12-12T17:03:36.578Z,9.70
2022-12-12T17:06:25.903Z,11.45
2022-12-12T17:09:14.745Z,11.15
2022-12-12T17:12:09.343Z,10.82
2022-12-12T17:14:53.856Z,10.77
2022-12-12T17:17:51.391Z,9.40
2022-12-12T17:20:38.677Z,9.63
2022-12-12T17:23:40.483Z,10.65
2022-12-12T17:26:36.028Z,10.23
2022-12-12T17:29:26.505Z,10.10
2022-12-12T17:32:25.918Z,10.52
2022-12-12T17:35:16.039Z,9.95
2022-12-12T17:37:57.589Z,10.45
2022-12-12T17:40:49.300Z,11.25
2022-12-12T17:43:37.716Z,11.23
2022-12-12T17:46:26.255Z,10.65
2022-12-12T17:49:12.895Z,9.23
2022-12-12T17:51:58.211Z,12.65
2022-12-12T17:54:43.908Z,10.88
2022-12-12T17:57:56.398Z,11.57
2022-12-12T18:00:42.968Z,9.95
2022-12-12T18:03:30.774Z,12.60
2022-12-12T18:06:12.359Z,13.20
2022-12-12T18:09:04.046Z,12.75
2022-12-12T18:12:03.366Z,12.63
2022-12-12T18:14:46.385Z,17.50
2022-12-12T18:17:41.411Z,19.67
2022-12-12T18:20:31.041Z,15.90
2022-12-12T18:23:13.852Z,14.73
2022-12-12T18:25:59.879Z,14.05
2022-12-12T18:28:59.461Z,15.55
2022-12-12T18:31:52.368Z,12.32
2022-12-12T18:34:38.923Z,11.88
2022-12-12T18:37:18.597Z,9.88
2022-12-12T18:39:54.365Z,11.30
2022-12-12T18:42:44.903Z,10.63
2022-12-12T18:45:31.494Z,11.73
2022-12-12T18:48:17.279Z,11.88
2022-12-12T18:51:01.774Z,13.25
2022-12-12T18:53:50.638Z,12.82
2022-12-12T18:56:45.523Z,13.50
2022-12-12T18:59:32.465Z,14.15
2022-12-12T19:02:18.777Z,11.85
2022-12-12T19:05:08.005Z,10.93
2022-12-12T19:08:00.484Z,12.77
2022-12-12T19:10:35.561Z,12.05
2022-12-12T19:13:31.018Z,11.73
2022-12-12T19:16:21.954Z,12.63
2022-12-12T19:19:14.938Z,14.20
2022-12-12T19:25:25.868Z,12.52
2022-12-12T19:28:09.783Z,13.75
2022-12-12T19:31:08.857Z,13.43
2022-12-12T19:33:54.180Z,13.07
2022-12-12T19:36:45.857Z,13.15
2022-12-12T19:39:37.371Z,14.30
2022-12-12T19:45:04.464Z,13.25
2022-12-12T19:47:59.193Z,15.45
2022-12-12T19:50:46.768Z,14.43
2022-12-12T19:53:33.439Z,14.00
2022-12-12T19:56:36.001Z,13.65
2022-12-12T19:59:21.754Z,13.77
2022-12-12T20:04:51.934Z,14.48
2022-12-12T20:07:35.333Z,12.48
2022-12-12T20:10:13.695Z,14.63
2022-12-12T20:13:11.628Z,14.38
2022-12-12T20:15:55.324Z,13.13
2022-12-12T20:18:42.861Z,13.93
2022-12-12T20:22:00.405Z,14.13
2022-12-12T20:24:54.583Z,13.73
2022-12-12T20:27:40.879Z,14.88
2022-12-12T20:30:41.795Z,14.15
2022-12-12T20:33:31.914Z,13.85
2022-12-12T20:36:19.887Z,14.57
2022-12-12T20:39:06.490Z,15.23
2022-12-12T20:41:58.418Z,14.40
2022-12-12T20:44:47.653Z,14.40
2022-12-12T20:47:27.958Z,14.55
2022-12-12T20:50:22.685Z,13.75
2022-12-12T20:53:15.054Z,15.65
2022-12-12T20:56:10.571Z,14.00
2022-12-12T20:59:02.338Z,14.15
2022-12-12T21:02:02.477Z,15.68
2022-12-12T21:04:51.877Z,15.13
2022-12-12T21:07:32.818Z,15.38
2022-12-12T21:10:30.708Z,15.70
2022-12-12T21:13:23.471Z,17.15
2022-12-12T21:16:19.758Z,17.35
2022-12-12T21:19:00.360Z,15.98
2022-12-12T21:21:43.234Z,13.93
2022-12-12T21:24:24.598Z,15.48
2022-12-12T21:27:06.884Z,15.38
2022-12-12T21:29:56.556Z,16.02
2022-12-12T21:32:46.688Z,17.08
2022-12-12T21:35:43.031Z,17.40
2022-12-12T21:38:26.790Z,17.00
2022-12-12T21:41:27.719Z,14.88
2022-12-12T21:44:19.802Z,14.73
2022-12-12T21:47:14.342Z,29.10
2022-12-12T21:50:05.042Z,20.92
2022-12-12T21:53:06.488Z,19.95
2022-12-12T21:56:03.806Z,17.70
2022-12-12T21:58:40.602Z,18.75
2022-12-12T22:01:28.844Z,18.50
2022-12-12T22:04:11.858Z,26.33
2022-12-12T22:07:12.082Z,24.95
2022-12-12T22:10:11.146Z,18.27
2022-12-12T22:12:58.224Z,21.27
2022-12-12T22:15:47.877Z,21.60
2022-12-12T22:18:29.438Z,19.17
2022-12-12T22:21:29.349Z,18.23
2022-12-12T22:24:12.038Z,23.33
2022-12-12T22:27:06.732Z,22.15
2022-12-12T22:29:56.394Z,21.08
2022-12-12T22:32:48.262Z,22.90
2022-12-12T22:35:37.927Z,26.17
2022-12-12T22:38:18.355Z,23.80
2022-12-12T22:41:24.434Z,20.70
2022-12-12T22:44:14.429Z,20.13
2022-12-12T22:46:56.008Z,21.17
2022-12-12T22:49:51.574Z,20.58
2022-12-12T22:52:40.279Z,23.58
2022-12-12T22:55:34.968Z,22.08
2022-12-12T22:58:18.738Z,24.35
2022-12-12T23:00:57.840Z,23.70
2022-12-12T23:03:43.260Z,22.55
2022-12-12T23:06:31.394Z,23.10
2022-12-12T23:09:28.036Z,23.48
2022-12-12T23:12:23.443Z,22.15
2022-12-12T23:15:13.314Z,23.65
2022-12-12T23:17:54.004Z,22.38
2022-12-12T23:23:43.288Z,24.08
2022-12-12T23:26:37.555Z,25.13
2022-12-12T23:29:32.356Z,23.60
2022-12-12T23:32:19.650Z,21.45
2022-12-12T23:35:14.783Z,20.77
2022-12-12T23:40:49.367Z,22.92
2022-12-12T23:43:50.666Z,22.70
2022-12-12T23:46:35.339Z,22.95
2022-12-12T23:49:33.892Z,23.10
2022-12-12T23:52:17.484Z,24.00
2022-12-12T23:55:17.376Z,22.88
2022-12-12T23:58:04.162Z,22.85
